This is the latest recevied weather packets stored in our database for station/object R8AHC-W3. If no packets are shown the sender has not sent any weather packets the latest 10 day(s).
| Time | Temp. | Humidity | Pressure | Rain* | Wind** | Luminosity | Snow |
|---|---|---|---|---|---|---|---|
| 1777881422 | 14.44° C | 71% | 1009 hPa | - | 2.68 m/s, 296° | - | - |
| 1777874221 | 10° C | 88% | 1010 hPa | - | 1.34 m/s, 259° | - | - |
| 1777867022 | 6.11° C | 92% | 1011 hPa | - | 1.79 m/s, 176° | - | - |
| 1777863422 | 6.11° C | 92% | 1011 hPa | - | 1.79 m/s, 176° | - | - |
| 1777859822 | 6.11° C | 92% | 1012 hPa | - | 1.79 m/s, 176° | - | - |
| 1777856222 | 6.11° C | 92% | 1013 hPa | - | 1.79 m/s, 176° | - | - |
| 1777852623 | 6.11° C | 92% | 1014 hPa | - | 1.79 m/s, 176° | - | - |
| 1777849022 | 6.11° C | 92% | 1014 hPa | - | 1.79 m/s, 176° | - | - |
| 1777845422 | 6.11° C | 92% | 1015 hPa | - | 1.79 m/s, 176° | - | - |
| 1777841822 | 6.11° C | 92% | 1016 hPa | - | 1.79 m/s, 176° | - | - |
| 1777838222 | 6.11° C | 92% | 1017 hPa | - | 1.79 m/s, 176° | - | - |
| 1777834622 | 6.11° C | 92% | 1019 hPa | - | 1.79 m/s, 176° | - | - |
| 1777827422 | 5° C | 95% | 1020 hPa | - | 1.79 m/s, 192° | - | - |
| 1777823822 | 8.89° C | 75% | 1020 hPa | - | 4.47 m/s, 187° | - | - |
| 1777820222 | 8.89° C | 75% | 1020 hPa | - | 4.47 m/s, 187° | - | - |
| 1777816622 | 8.89° C | 75% | 1020 hPa | - | 4.47 m/s, 187° | - | - |
| 1777813022 | 8.89° C | 75% | 1020 hPa | - | 4.47 m/s, 187° | - | - |
| 1777802222 | 12.78° C | 44% | 1021 hPa | - | 4.02 m/s, 182° | - | - |
| 1777795022 | 11.11° C | 40% | 1021 hPa | - | 2.24 m/s, 217° | - | - |
| 1777791422 | 11.11° C | 40% | 1022 hPa | - | 2.24 m/s, 217° | - | - |
| 1777787822 | 11.11° C | 40% | 1023 hPa | - | 2.24 m/s, 217° | - | - |
| 1777784222 | 6.11° C | 59% | 1024 hPa | - | 0.89 m/s, 234° | - | - |
| 1777780623 | 6.11° C | 59% | 1024 hPa | - | 0.89 m/s, 234° | - | - |
| 1777777022 | 6.11° C | 59% | 1024 hPa | - | 0.89 m/s, 234° | - | - |
| 1777766222 | 1.67° C | 79% | 1024 hPa | - | 1.34 m/s, 269° | - | - |
* Rain since midnight (hover to see other rain measurements)
** Current wind speed in m/s (hover to see current wind gust speed)